ESMS/MMX METAR and TAF weather

Enter ICAO airport designator
Station Type Date Time Source
ESMS METAR 2019/12/12 11:50 UTC NOAA

ESMS 121150Z 19004KT 9999 SCT008 BKN022 OVC031 04/04 Q0998


Station Type Date Time Source
ESMS Decoded METAR 2019/12/12 11:50 UTC NOAA

Malmo / Sturup, Sweden (ESMS) 55-33N 013-22E
Dec 12, 2019 - 06:50 AM EST / 2019.12.12 1150 UTC
Wind: from the S (190 degrees) at 5 MPH (4 KT):0
Visibility: greater than 7 mile(s):0
Sky conditions: overcast
Temperature: 39 F (4 C)
Dew Point: 39 F (4 C)
Relative Humidity: 100%
Pressure (altimeter): 29.47 in. Hg (0998 hPa)
ob: ESMS 121150Z 19004KT 9999 SCT008 BKN022 OVC031 04/04 Q0998
cycle: 12

Station Type Date Time Source
ESMS TAF 2019/12/12 12:06 UTC NOAA

TAF TAF ESMS 121101Z 1212/1312 18005KT 9999 -RADZ SCT007 BKN015
TEMPO 1212/1218 BKN008
TEMPO 1218/1224 SHRA BKN010 SCT015CB
BECMG 1221/1224 16012KT
TEMPO 1300/1312 15015G25KT BKN012

Example: see airport list